createdAt,value
2017-07-01T09:18:21.863Z,19.98
2017-07-01T09:19:21.084Z,19.58
2017-07-01T09:20:21.265Z,19.28
2017-07-01T09:21:19.922Z,19.14
2017-07-01T09:22:16.747Z,19.12
2017-07-01T09:23:19.843Z,19.10
2017-07-01T09:24:20.039Z,19.08
2017-07-01T09:25:18.466Z,18.98
2017-07-01T09:26:19.588Z,19.01
2017-07-01T09:27:17.083Z,19.12
2017-07-01T09:28:20.166Z,19.04
2017-07-01T09:29:20.318Z,19.11
2017-07-01T09:30:22.805Z,19.17
2017-07-01T09:31:22.040Z,19.11
2017-07-01T09:32:22.127Z,19.20
2017-07-01T09:33:22.100Z,19.26
2017-07-01T09:34:17.720Z,19.31
2017-07-01T09:35:21.848Z,19.23
2017-07-01T09:36:16.997Z,19.18
2017-07-01T09:37:16.863Z,19.23
2017-07-01T09:38:22.695Z,19.27
2017-07-01T09:39:22.890Z,19.22
2017-07-01T09:40:16.809Z,19.22
2017-07-01T09:41:22.625Z,19.21
2017-07-01T09:42:19.275Z,19.16
2017-07-01T09:43:16.868Z,19.16
2017-07-01T09:44:17.321Z,19.19
2017-07-01T09:45:17.471Z,19.32
2017-07-01T09:46:20.609Z,19.40
2017-07-01T09:47:20.769Z,19.35
2017-07-01T09:48:19.889Z,19.26
2017-07-01T09:49:20.067Z,19.09
2017-07-01T09:50:17.329Z,19.12
2017-07-01T09:51:17.390Z,19.09
2017-07-01T09:52:22.670Z,19.08
2017-07-01T09:53:22.841Z,19.05
2017-07-01T09:54:17.025Z,19.08
2017-07-01T09:55:22.182Z,19.10
2017-07-01T09:56:16.764Z,19.16
2017-07-01T09:57:16.292Z,19.24
2017-07-01T09:58:12.205Z,19.28
2017-07-01T09:59:22.233Z,19.26
2017-07-01T10:00:13.022Z,19.28
2017-07-01T10:01:22.594Z,19.23
2017-07-01T10:02:19.632Z,19.32
2017-07-01T10:03:22.447Z,19.41
2017-07-01T10:04:23.455Z,19.44
2017-07-01T10:05:17.550Z,19.47
2017-07-01T10:06:22.702Z,19.46
2017-07-01T10:07:19.764Z,19.50
2017-07-01T10:08:21.910Z,19.54
2017-07-01T10:09:22.061Z,19.58
2017-07-01T10:10:17.301Z,19.61
2017-07-01T10:11:16.874Z,19.61
2017-07-01T10:12:22.029Z,19.65
2017-07-01T10:13:22.196Z,19.69
2017-07-01T10:14:16.880Z,19.57
2017-07-01T10:15:22.003Z,19.54
2017-07-01T10:16:11.476Z,19.56
2017-07-01T10:17:16.581Z,19.53
2017-07-01T10:18:17.025Z,19.45
2017-07-01T10:19:16.589Z,19.51
2017-07-01T10:20:21.774Z,19.56
2017-07-01T10:21:21.486Z,19.58
2017-07-01T10:22:16.875Z,19.55
2017-07-01T10:23:19.581Z,19.51
2017-07-01T10:24:22.254Z,19.54
2017-07-01T10:25:16.871Z,19.53
2017-07-01T10:26:23.006Z,19.52
2017-07-01T10:27:22.150Z,19.58
2017-07-01T10:28:22.328Z,19.54
2017-07-01T10:29:22.464Z,19.58
2017-07-01T10:30:19.608Z,19.65
2017-07-01T10:31:20.760Z,19.67
2017-07-01T10:32:21.899Z,19.78
2017-07-01T10:33:19.964Z,19.83
2017-07-01T10:34:17.322Z,19.86
2017-07-01T10:35:21.512Z,19.92
2017-07-01T10:36:19.614Z,19.94
2017-07-01T10:37:22.690Z,19.94
2017-07-01T10:38:21.833Z,19.90
2017-07-01T10:39:19.843Z,19.83
2017-07-01T10:40:16.771Z,19.79
2017-07-01T10:41:21.870Z,19.79
2017-07-01T10:42:19.996Z,19.80
2017-07-01T10:43:20.120Z,19.74
2017-07-01T10:44:20.214Z,19.77
2017-07-01T10:45:20.418Z,19.84
2017-07-01T10:46:22.901Z,19.85
2017-07-01T10:47:19.957Z,19.85
2017-07-01T10:48:20.230Z,19.89
2017-07-01T10:49:16.957Z,19.93
2017-07-01T10:50:21.993Z,19.96
2017-07-01T10:51:25.562Z,19.96
2017-07-01T10:52:19.652Z,19.93
2017-07-01T10:53:19.673Z,19.92
2017-07-01T10:54:20.529Z,19.94
2017-07-01T10:55:22.295Z,20.05
2017-07-01T10:56:16.944Z,20.06
2017-07-01T10:57:22.122Z,19.99
2017-07-01T10:58:22.075Z,19.97
2017-07-01T10:59:20.236Z,19.95
2017-07-01T11:00:20.329Z,19.95
2017-07-01T11:01:21.952Z,19.95
2017-07-01T11:02:21.986Z,19.96
2017-07-01T11:03:22.173Z,19.99
2017-07-01T11:04:22.329Z,19.98
2017-07-01T11:05:17.804Z,19.99
2017-07-01T11:06:22.281Z,19.97
2017-07-01T11:07:22.391Z,19.96
2017-07-01T11:08:22.389Z,19.95
2017-07-01T11:09:21.888Z,19.95
2017-07-01T11:10:19.569Z,19.97
2017-07-01T11:11:22.124Z,19.98
2017-07-01T11:12:22.019Z,20.04
2017-07-01T11:13:16.772Z,20.10
2017-07-01T11:14:21.925Z,20.15
2017-07-01T11:15:22.045Z,20.21
2017-07-01T11:16:22.230Z,20.23
2017-07-01T11:17:22.466Z,20.19
2017-07-01T11:18:17.008Z,20.17
2017-07-01T11:19:22.048Z,20.13
2017-07-01T11:20:22.844Z,20.17
2017-07-01T11:21:22.019Z,20.22
2017-07-01T11:22:22.178Z,20.24
2017-07-01T11:23:17.006Z,20.24
2017-07-01T11:24:16.448Z,20.22
2017-07-01T11:25:22.683Z,20.28
2017-07-01T11:26:21.722Z,20.23
2017-07-01T11:27:21.419Z,20.22
2017-07-01T11:28:20.518Z,20.24
2017-07-01T11:29:17.100Z,20.23
2017-07-01T11:30:22.272Z,20.20
2017-07-01T11:31:20.149Z,20.20
2017-07-01T11:32:16.708Z,20.14
2017-07-01T11:33:19.846Z,20.17
2017-07-01T11:34:19.967Z,20.21
2017-07-01T11:35:23.111Z,20.13
2017-07-01T11:36:20.268Z,20.15
2017-07-01T11:37:20.401Z,20.20
2017-07-01T11:38:17.632Z,20.24
2017-07-01T11:39:22.742Z,20.27
2017-07-01T11:40:19.847Z,20.31
2017-07-01T11:41:16.401Z,20.31
2017-07-01T11:42:22.941Z,20.28
2017-07-01T11:43:12.108Z,20.32
2017-07-01T11:44:21.795Z,20.37
2017-07-01T11:45:21.937Z,20.47
2017-07-01T11:46:21.593Z,20.54
2017-07-01T11:47:19.689Z,20.59
2017-07-01T11:48:22.369Z,20.56
2017-07-01T11:49:22.058Z,20.53
2017-07-01T11:50:22.545Z,20.48
2017-07-01T11:51:19.880Z,20.47
2017-07-01T11:52:20.058Z,20.51
2017-07-01T11:53:16.838Z,20.50
2017-07-01T11:54:19.919Z,20.50
2017-07-01T11:55:20.092Z,20.53
2017-07-01T11:56:17.111Z,20.57
2017-07-01T11:57:17.103Z,20.60
2017-07-01T11:58:17.325Z,20.61
2017-07-01T11:59:27.409Z,20.63
2017-07-01T12:00:20.043Z,20.68
2017-07-01T12:01:11.607Z,20.73
2017-07-01T12:02:23.185Z,20.76
2017-07-01T12:03:22.070Z,20.76
2017-07-01T12:04:20.173Z,20.72
2017-07-01T12:05:19.226Z,20.73
2017-07-01T12:06:22.357Z,20.76
2017-07-01T12:07:22.510Z,20.78
2017-07-01T12:08:22.097Z,20.78
2017-07-01T12:09:22.077Z,20.74
2017-07-01T12:10:20.229Z,20.80
2017-07-01T12:11:20.355Z,20.85
2017-07-01T12:12:21.677Z,20.89
2017-07-01T12:13:19.776Z,20.88
2017-07-01T12:14:19.886Z,20.88
2017-07-01T12:15:20.040Z,20.85
2017-07-01T12:16:22.162Z,20.84
2017-07-01T12:17:20.919Z,20.82
2017-07-01T12:18:17.368Z,20.81
2017-07-01T12:19:13.501Z,20.82
2017-07-01T12:20:18.605Z,20.82
2017-07-01T12:21:19.758Z,20.79
2017-07-01T12:22:19.832Z,20.79
2017-07-01T12:23:19.925Z,20.82
2017-07-01T12:24:19.685Z,20.78
2017-07-01T12:25:19.735Z,20.80
2017-07-01T12:26:20.425Z,20.84
2017-07-01T12:27:22.997Z,20.88
2017-07-01T12:28:20.155Z,20.85
2017-07-01T12:29:20.316Z,20.94
2017-07-01T12:30:20.348Z,21.00
2017-07-01T12:31:20.482Z,21.03
2017-07-01T12:32:19.677Z,21.04
2017-07-01T12:33:19.771Z,21.06
2017-07-01T12:34:17.029Z,21.07
2017-07-01T12:35:22.816Z,21.10
2017-07-01T12:36:19.903Z,21.11
2017-07-01T12:37:21.131Z,21.09
2017-07-01T12:38:17.320Z,21.13
2017-07-01T12:39:20.405Z,21.10
2017-07-01T12:40:12.978Z,21.11
2017-07-01T12:41:20.066Z,21.07
2017-07-01T12:42:17.285Z,21.05
2017-07-01T12:43:20.477Z,21.10
2017-07-01T12:44:19.555Z,21.14
2017-07-01T12:45:19.650Z,21.20
2017-07-01T12:46:19.855Z,21.26
2017-07-01T12:47:19.937Z,21.29
2017-07-01T12:48:20.099Z,21.17
2017-07-01T12:49:20.185Z,21.06
2017-07-01T12:50:18.744Z,21.03
2017-07-01T12:51:19.791Z,21.06
2017-07-01T12:52:19.852Z,21.07
2017-07-01T12:53:19.997Z,21.07
2017-07-01T12:54:20.088Z,21.03
2017-07-01T12:55:25.688Z,21.08
2017-07-01T12:56:13.555Z,21.13
2017-07-01T12:57:19.616Z,21.21
2017-07-01T12:58:19.705Z,21.29
2017-07-01T12:59:20.344Z,21.34
2017-07-01T13:00:56.496Z,21.74
2017-07-01T13:01:26.841Z,21.75
2017-07-01T13:02:16.931Z,21.73
2017-07-01T13:03:22.007Z,21.74
2017-07-01T13:04:12.716Z,21.86
2017-07-01T13:05:15.818Z,21.95
2017-07-01T13:06:22.512Z,22.03
2017-07-01T13:07:12.795Z,22.12
2017-07-01T13:08:16.948Z,22.14
2017-07-01T13:09:22.342Z,22.21
2017-07-01T13:10:11.982Z,22.25
2017-07-01T13:11:21.987Z,22.21
2017-07-01T13:12:11.849Z,22.31
2017-07-01T13:13:22.716Z,22.29
2017-07-01T13:14:16.929Z,22.33
2017-07-01T13:15:22.606Z,22.53
2017-07-01T13:16:11.750Z,22.34
2017-07-01T13:17:16.942Z,22.12
2017-07-01T13:18:22.239Z,22.39
2017-07-01T13:19:17.355Z,22.59
2017-07-01T13:20:17.590Z,22.72
2017-07-01T13:21:13.420Z,22.81
2017-07-01T13:22:21.610Z,22.92
2017-07-01T13:23:22.371Z,23.09
2017-07-01T13:24:12.517Z,23.46
2017-07-01T13:25:21.829Z,23.62
2017-07-01T13:26:22.093Z,23.53
2017-07-01T13:27:16.817Z,23.25
2017-07-01T13:28:11.860Z,23.62
2017-07-01T13:29:22.745Z,23.40
2017-07-01T13:30:22.629Z,22.95
2017-07-01T13:31:17.853Z,22.96
2017-07-01T13:32:16.912Z,22.62
2017-07-01T13:33:12.553Z,22.71
2017-07-01T13:34:18.653Z,22.58
2017-07-01T13:35:22.286Z,22.49
2017-07-01T13:36:16.963Z,22.34
2017-07-01T13:37:11.992Z,22.37
2017-07-01T13:38:22.514Z,23.36
2017-07-01T13:39:12.158Z,22.80
2017-07-01T13:40:21.875Z,22.58
2017-07-01T13:41:15.761Z,22.40
2017-07-01T13:42:17.465Z,22.54
2017-07-01T13:43:17.530Z,22.35
2017-07-01T13:44:16.918Z,22.85
2017-07-01T13:45:16.991Z,22.68
2017-07-01T13:46:12.300Z,23.37
2017-07-01T13:47:17.525Z,23.46
2017-07-01T13:48:16.523Z,23.88
2017-07-01T13:49:11.629Z,24.53
2017-07-01T13:50:12.352Z,24.84
2017-07-01T13:51:22.543Z,23.76
2017-07-01T13:52:22.041Z,23.58
2017-07-01T13:53:22.310Z,23.02
2017-07-01T13:54:22.585Z,22.52
2017-07-01T13:55:16.895Z,22.53
2017-07-01T13:56:16.909Z,22.63
2017-07-01T13:57:16.522Z,22.79
2017-07-01T13:58:16.744Z,22.78
2017-07-01T13:59:22.589Z,22.73
2017-07-01T14:00:22.690Z,23.90
2017-07-01T14:01:16.793Z,23.48
2017-07-01T14:02:11.592Z,23.57
2017-07-01T14:03:16.579Z,24.07
2017-07-01T14:04:21.872Z,24.14
2017-07-01T14:05:17.264Z,23.97
2017-07-01T14:06:22.528Z,23.20
2017-07-01T14:07:16.518Z,22.86
2017-07-01T14:08:21.843Z,22.64
2017-07-01T14:09:17.164Z,22.54
2017-07-01T14:10:22.514Z,22.44
2017-07-01T14:11:17.562Z,22.44
2017-07-01T14:12:21.858Z,22.40
2017-07-01T14:13:22.190Z,22.61
2017-07-01T14:14:23.414Z,22.69
2017-07-01T14:15:22.535Z,22.74
2017-07-01T14:16:12.679Z,22.78
2017-07-01T14:17:18.051Z,22.78
2017-07-01T14:18:12.188Z,22.53
2017-07-01T14:19:16.927Z,22.70
2017-07-01T14:20:22.251Z,22.97
2017-07-01T14:21:15.519Z,22.95
2017-07-01T14:22:11.456Z,22.90
2017-07-01T14:23:22.359Z,22.72
2017-07-01T14:24:17.883Z,22.53
2017-07-01T14:25:17.021Z,22.61
2017-07-01T14:26:17.250Z,22.76
2017-07-01T14:27:22.496Z,22.74
2017-07-01T14:28:16.816Z,22.68
2017-07-01T14:29:22.167Z,22.59
2017-07-01T14:30:22.142Z,22.52
2017-07-01T14:31:17.650Z,22.78
2017-07-01T14:32:21.926Z,22.94
2017-07-01T14:33:22.225Z,22.94
2017-07-01T14:34:17.586Z,22.91
2017-07-01T14:35:12.643Z,22.81
2017-07-01T14:36:21.746Z,22.66
2017-07-01T14:37:22.043Z,22.50
2017-07-01T14:38:17.065Z,22.50
2017-07-01T14:39:18.073Z,22.46
2017-07-01T14:40:12.743Z,22.55
2017-07-01T14:41:22.189Z,22.51
2017-07-01T14:42:11.942Z,22.50
2017-07-01T14:43:21.743Z,22.56
2017-07-01T14:44:17.243Z,22.72
2017-07-01T14:45:22.476Z,22.99
2017-07-01T14:46:16.283Z,22.95
2017-07-01T14:47:17.907Z,22.98
2017-07-01T14:48:22.107Z,22.82
2017-07-01T14:49:22.540Z,22.82
2017-07-01T14:50:15.509Z,22.74
2017-07-01T14:51:17.011Z,23.22
2017-07-01T14:52:17.194Z,23.02
2017-07-01T14:53:16.804Z,22.88
2017-07-01T14:54:16.968Z,22.76
2017-07-01T14:55:12.660Z,22.70
2017-07-01T14:56:22.488Z,22.72
2017-07-01T14:57:17.468Z,22.69
2017-07-01T14:58:21.763Z,23.12
2017-07-01T14:59:22.052Z,22.99
2017-07-01T15:00:17.054Z,22.85
2017-07-01T15:01:13.666Z,22.72
2017-07-01T15:02:21.947Z,22.67
2017-07-01T15:03:17.053Z,22.84
2017-07-01T15:04:19.629Z,22.93
2017-07-01T15:05:22.266Z,23.56
2017-07-01T15:06:22.049Z,23.02
2017-07-01T15:07:17.190Z,22.83
2017-07-01T15:08:12.224Z,22.67
2017-07-01T15:09:17.097Z,22.59
2017-07-01T15:10:16.836Z,22.46
2017-07-01T15:11:15.739Z,22.44
2017-07-01T15:12:21.999Z,22.35
2017-07-01T15:13:21.909Z,22.48
2017-07-01T15:14:17.126Z,22.47
2017-07-01T15:15:17.356Z,22.44
2017-07-01T15:16:18.109Z,22.53
2017-07-01T15:17:22.551Z,23.20
2017-07-01T15:18:17.123Z,23.95
2017-07-01T15:19:22.110Z,23.69
2017-07-01T15:20:22.391Z,24.51
2017-07-01T15:21:17.620Z,24.83
2017-07-01T15:22:21.846Z,24.37
2017-07-01T15:23:22.108Z,24.37
2017-07-01T15:24:22.827Z,25.01
2017-07-01T15:25:22.066Z,25.41
2017-07-01T15:26:22.297Z,25.45
2017-07-01T15:27:17.299Z,25.70
2017-07-01T15:28:21.828Z,25.56
2017-07-01T15:29:22.207Z,25.52
2017-07-01T15:30:12.400Z,24.56
2017-07-01T15:31:17.014Z,23.85
2017-07-01T15:32:22.247Z,23.70
2017-07-01T15:33:15.498Z,23.62
2017-07-01T15:34:21.815Z,24.19
2017-07-01T15:35:22.326Z,24.92
2017-07-01T15:36:12.212Z,25.36
2017-07-01T15:37:17.128Z,24.77
2017-07-01T15:38:17.319Z,24.08
2017-07-01T15:39:17.326Z,23.35
2017-07-01T15:40:23.032Z,23.46
2017-07-01T15:41:22.324Z,23.30
2017-07-01T15:42:22.601Z,23.22
2017-07-01T15:43:17.248Z,23.39
2017-07-01T15:44:22.553Z,23.75
2017-07-01T15:45:17.070Z,24.36
2017-07-01T15:46:16.799Z,24.63
2017-07-01T15:47:17.068Z,24.23
2017-07-01T15:48:18.125Z,23.98
2017-07-01T15:49:22.412Z,23.79
2017-07-01T15:50:17.767Z,23.64
2017-07-01T15:51:17.604Z,23.54
2017-07-01T15:52:16.637Z,23.48
2017-07-01T15:53:22.182Z,23.90
2017-07-01T15:54:22.493Z,24.51
2017-07-01T15:55:16.498Z,24.06
2017-07-01T15:56:12.643Z,23.88
2017-07-01T15:57:21.940Z,23.72
2017-07-01T15:58:17.167Z,23.47
2017-07-01T15:59:22.473Z,23.80
2017-07-01T16:00:16.461Z,24.57
2017-07-01T16:01:17.114Z,24.67
2017-07-01T16:02:12.374Z,24.37
2017-07-01T16:03:17.549Z,24.06
2017-07-01T16:04:16.518Z,23.98
2017-07-01T16:05:17.080Z,23.73
2017-07-01T16:06:17.205Z,23.64
2017-07-01T16:07:17.331Z,23.53
2017-07-01T16:08:17.840Z,23.42
2017-07-01T16:09:22.899Z,23.33
2017-07-01T16:10:22.172Z,23.26
2017-07-01T16:11:17.665Z,23.14
2017-07-01T16:12:21.901Z,23.12
2017-07-01T16:13:22.183Z,23.04
2017-07-01T16:14:17.689Z,22.95
2017-07-01T16:15:17.876Z,23.07
2017-07-01T16:16:16.914Z,23.38
2017-07-01T16:17:22.803Z,23.46
2017-07-01T16:18:22.494Z,23.36
2017-07-01T16:19:11.775Z,23.28
2017-07-01T16:20:17.489Z,23.25
2017-07-01T16:21:17.931Z,23.20
2017-07-01T16:22:12.058Z,22.93
2017-07-01T16:23:12.346Z,22.95
2017-07-01T16:24:12.840Z,22.94
2017-07-01T16:25:12.245Z,23.27
2017-07-01T16:26:20.402Z,24.54
2017-07-01T16:27:17.539Z,24.09
2017-07-01T16:28:17.150Z,23.59
2017-07-01T16:29:16.748Z,23.57
2017-07-01T16:30:16.964Z,24.16
2017-07-01T16:31:12.710Z,25.23
2017-07-01T16:32:21.995Z,25.69
2017-07-01T16:33:22.278Z,25.90
2017-07-01T16:34:17.356Z,26.04
2017-07-01T16:35:23.119Z,25.98
2017-07-01T16:36:21.853Z,25.90
2017-07-01T16:37:16.923Z,26.03
2017-07-01T16:38:17.516Z,26.43
2017-07-01T16:39:16.642Z,26.37
2017-07-01T16:40:16.797Z,24.96
2017-07-01T16:41:11.992Z,24.47
2017-07-01T16:42:16.671Z,24.66
2017-07-01T16:43:19.709Z,25.53
2017-07-01T16:44:16.831Z,25.94
2017-07-01T16:45:16.663Z,25.40
2017-07-01T16:46:16.826Z,25.08
2017-07-01T16:47:11.933Z,25.27
2017-07-01T16:48:16.688Z,24.62
2017-07-01T16:49:22.118Z,24.01
2017-07-01T16:50:16.962Z,23.78
2017-07-01T16:51:22.254Z,23.46
2017-07-01T16:52:12.871Z,23.43
2017-07-01T16:53:22.121Z,23.39
2017-07-01T16:54:22.424Z,23.44
2017-07-01T16:55:17.624Z,23.53
2017-07-01T16:56:12.118Z,23.68
2017-07-01T16:57:22.415Z,23.48
2017-07-01T16:58:21.791Z,23.45
2017-07-01T16:59:12.362Z,23.30
2017-07-01T17:00:12.809Z,23.78
2017-07-01T17:01:16.932Z,24.35
2017-07-01T17:02:12.201Z,24.65
2017-07-01T17:03:12.623Z,24.15
2017-07-01T17:04:16.789Z,23.32
2017-07-01T17:05:16.979Z,23.26
2017-07-01T17:06:20.212Z,23.57
2017-07-01T17:07:12.421Z,24.30
2017-07-01T17:08:11.245Z,25.01
2017-07-01T17:09:11.625Z,24.35
2017-07-01T17:10:21.971Z,23.88
2017-07-01T17:11:12.041Z,23.67
2017-07-01T17:12:17.353Z,23.67
2017-07-01T17:13:22.632Z,23.68
2017-07-01T17:14:21.945Z,23.66
2017-07-01T17:15:16.832Z,23.66
2017-07-01T17:16:22.084Z,23.65
2017-07-01T17:17:17.117Z,23.49
2017-07-01T17:18:20.250Z,23.39
2017-07-01T17:19:12.428Z,23.32
2017-07-01T17:20:23.197Z,23.22
2017-07-01T17:21:12.985Z,23.24
2017-07-01T17:22:22.263Z,23.18
2017-07-01T17:23:12.472Z,22.97
2017-07-01T17:24:12.024Z,22.89
2017-07-01T17:25:21.784Z,22.99
2017-07-01T17:26:22.098Z,22.81
2017-07-01T17:27:22.400Z,22.72
2017-07-01T17:28:20.377Z,22.59
2017-07-01T17:29:17.532Z,22.49
2017-07-01T17:30:16.814Z,22.57
2017-07-01T17:31:22.089Z,22.56
2017-07-01T17:32:22.388Z,22.53
2017-07-01T17:33:17.480Z,22.47
2017-07-01T17:34:21.873Z,22.52
2017-07-01T17:35:21.950Z,22.47
2017-07-01T17:36:17.475Z,22.51
2017-07-01T17:37:17.524Z,22.34
2017-07-01T17:38:11.712Z,22.37
2017-07-01T17:39:17.552Z,22.35
2017-07-01T17:40:13.458Z,22.23
2017-07-01T17:41:17.525Z,22.25
2017-07-01T17:42:12.060Z,22.25
2017-07-01T17:43:21.849Z,22.16
2017-07-01T17:44:17.104Z,22.13
2017-07-01T17:45:20.560Z,21.94
2017-07-01T17:46:17.140Z,21.93
2017-07-01T17:47:12.631Z,22.03
2017-07-01T17:48:11.884Z,22.06
2017-07-01T17:49:12.033Z,22.09
2017-07-01T17:50:16.768Z,22.12
2017-07-01T17:51:17.375Z,22.13
2017-07-01T17:52:17.545Z,22.14
2017-07-01T17:53:22.383Z,22.11
2017-07-01T17:54:13.378Z,22.03
2017-07-01T17:55:17.048Z,22.09
2017-07-01T17:56:12.522Z,22.23
2017-07-01T17:57:12.181Z,22.21
2017-07-01T17:58:22.550Z,22.04
2017-07-01T17:59:11.740Z,22.16
2017-07-01T18:00:23.068Z,22.06
2017-07-01T18:01:17.349Z,22.02
2017-07-01T18:02:12.134Z,21.76
2017-07-01T18:03:17.232Z,21.80
2017-07-01T18:04:22.353Z,21.76
2017-07-01T18:05:22.949Z,21.71
2017-07-01T18:06:22.439Z,21.78
2017-07-01T18:07:22.730Z,21.70
2017-07-01T18:08:22.086Z,21.63
2017-07-01T18:09:12.744Z,21.48
2017-07-01T18:10:17.234Z,21.62
2017-07-01T18:11:17.404Z,21.64
2017-07-01T18:12:13.512Z,21.63
2017-07-01T18:13:17.140Z,21.74
2017-07-01T18:14:12.788Z,21.75
2017-07-01T18:15:22.647Z,21.59
2017-07-01T18:16:21.912Z,21.55
2017-07-01T18:17:17.427Z,21.54
2017-07-01T18:18:20.093Z,21.63
2017-07-01T18:19:22.401Z,21.74
2017-07-01T18:20:22.709Z,21.79
2017-07-01T18:21:17.246Z,21.73
2017-07-01T18:22:22.471Z,21.81
2017-07-01T18:23:21.853Z,21.55
2017-07-01T18:24:11.968Z,21.42
2017-07-01T18:25:08.718Z,21.53
2017-07-01T18:26:22.739Z,21.38
2017-07-01T18:27:22.019Z,21.51
2017-07-01T18:28:22.462Z,21.50
2017-07-01T18:29:22.768Z,21.50
2017-07-01T18:30:22.081Z,21.56
2017-07-01T18:31:17.295Z,21.58
2017-07-01T18:32:17.416Z,21.56
2017-07-01T18:33:16.487Z,21.51
2017-07-01T18:34:21.830Z,21.49
2017-07-01T18:35:16.787Z,21.36
2017-07-01T18:36:16.985Z,21.30
2017-07-01T18:37:17.218Z,21.16
2017-07-01T18:38:12.461Z,21.18
2017-07-01T18:39:22.755Z,21.20
2017-07-01T18:40:12.954Z,21.09
2017-07-01T18:41:22.243Z,21.14
2017-07-01T18:42:17.129Z,21.14
2017-07-01T18:43:21.579Z,21.06
2017-07-01T18:44:22.770Z,21.02
2017-07-01T18:45:17.439Z,21.07
2017-07-01T18:46:21.770Z,21.18
2017-07-01T18:47:22.105Z,21.36
2017-07-01T18:48:17.322Z,21.50
2017-07-01T18:49:15.850Z,21.57
2017-07-01T18:50:16.804Z,21.57
2017-07-01T18:51:22.110Z,21.50
2017-07-01T18:52:17.663Z,21.23
2017-07-01T18:53:12.480Z,21.15
2017-07-01T18:54:22.803Z,21.12
2017-07-01T18:55:17.675Z,21.18
2017-07-01T18:56:19.756Z,20.99
2017-07-01T18:57:22.049Z,21.05
2017-07-01T18:58:17.072Z,20.94
2017-07-01T18:59:20.356Z,20.96
2017-07-01T19:00:19.849Z,21.01
2017-07-01T19:01:16.962Z,21.03
2017-07-01T19:02:17.580Z,21.04
2017-07-01T19:03:17.079Z,21.07
2017-07-01T19:04:11.867Z,20.98
2017-07-01T19:05:12.411Z,21.10
2017-07-01T19:06:22.821Z,21.03
2017-07-01T19:07:22.109Z,20.87
2017-07-01T19:08:17.177Z,20.86
2017-07-01T19:09:12.629Z,20.95
2017-07-01T19:10:17.152Z,20.85
2017-07-01T19:11:17.166Z,20.97
2017-07-01T19:12:13.547Z,20.90
2017-07-01T19:13:17.048Z,20.96
2017-07-01T19:14:17.097Z,20.94
2017-07-01T19:15:17.338Z,21.16
2017-07-01T19:16:17.104Z,21.24
2017-07-01T19:17:17.214Z,20.71
2017-07-01T19:18:17.191Z,20.56
2017-07-01T19:19:17.182Z,20.85
2017-07-01T19:20:12.192Z,21.09
2017-07-01T19:21:22.440Z,21.21
2017-07-01T19:22:17.023Z,21.22
2017-07-01T19:23:22.168Z,21.17
2017-07-01T19:24:18.606Z,21.28
2017-07-01T19:25:17.125Z,21.26
2017-07-01T19:26:17.170Z,21.28
2017-07-01T19:27:17.353Z,21.34
2017-07-01T19:28:19.485Z,21.12
2017-07-01T19:29:18.183Z,21.15
2017-07-01T19:30:12.010Z,21.21
2017-07-01T19:31:22.172Z,21.10
2017-07-01T19:32:17.495Z,21.13
2017-07-01T19:33:21.770Z,21.05
2017-07-01T19:34:12.074Z,20.84
2017-07-01T19:35:12.508Z,20.74
2017-07-01T19:36:21.780Z,20.49
2017-07-01T19:37:22.089Z,20.56
2017-07-01T19:38:12.636Z,20.61
2017-07-01T19:39:21.909Z,20.67
2017-07-01T19:40:22.184Z,20.76
2017-07-01T19:41:22.562Z,20.77
2017-07-01T19:42:16.893Z,20.78
2017-07-01T19:43:22.581Z,20.65
2017-07-01T19:44:11.831Z,20.57
2017-07-01T19:45:12.541Z,20.48
2017-07-01T19:46:22.081Z,20.54
2017-07-01T19:47:12.319Z,20.64
2017-07-01T19:48:17.465Z,20.64
2017-07-01T19:49:16.520Z,20.60
2017-07-01T19:50:16.668Z,20.63
2017-07-01T19:51:16.732Z,20.62
2017-07-01T19:52:21.818Z,20.71
2017-07-01T19:53:22.684Z,20.61
2017-07-01T19:54:16.757Z,20.50
2017-07-01T19:55:17.152Z,20.59
2017-07-01T19:56:17.720Z,20.54
2017-07-01T19:57:17.764Z,20.37
2017-07-01T19:58:16.754Z,20.10
2017-07-01T19:59:22.076Z,20.14
2017-07-01T20:00:17.273Z,20.25
2017-07-01T20:01:17.304Z,20.24
2017-07-01T20:02:22.602Z,20.28
2017-07-01T20:03:16.806Z,20.23
2017-07-01T20:04:22.112Z,20.26
2017-07-01T20:05:17.671Z,20.25
2017-07-01T20:06:16.808Z,20.36
2017-07-01T20:07:16.816Z,20.45
2017-07-01T20:08:16.996Z,20.40
2017-07-01T20:09:21.757Z,20.43
2017-07-01T20:10:22.586Z,20.34
2017-07-01T20:11:21.891Z,20.27
2017-07-01T20:12:16.796Z,20.45
2017-07-01T20:13:16.970Z,20.44
2017-07-01T20:14:22.725Z,20.42
2017-07-01T20:15:16.901Z,20.42
2017-07-01T20:16:12.547Z,20.34
2017-07-01T20:17:21.936Z,20.29
2017-07-01T20:18:22.218Z,20.22
2017-07-01T20:19:17.359Z,20.37
2017-07-01T20:20:17.518Z,20.37
2017-07-01T20:21:17.086Z,20.41
2017-07-01T20:22:12.343Z,20.46
2017-07-01T20:23:22.301Z,20.51
2017-07-01T20:24:12.640Z,20.20
2017-07-01T20:25:19.901Z,19.95
2017-07-01T20:26:17.055Z,19.93
2017-07-01T20:27:17.319Z,20.02
2017-07-01T20:28:12.077Z,20.17
2017-07-01T20:29:22.686Z,20.06
2017-07-01T20:30:22.597Z,20.05
2017-07-01T20:31:21.889Z,20.08
2017-07-01T20:32:17.085Z,20.18
2017-07-01T20:33:17.228Z,19.93
2017-07-01T20:34:17.332Z,19.81
2017-07-01T20:35:22.307Z,19.44
2017-07-01T20:36:20.462Z,19.16
2017-07-01T20:37:19.662Z,19.21
2017-07-01T20:38:12.353Z,19.03
2017-07-01T20:39:17.445Z,19.20
2017-07-01T20:40:16.643Z,19.43
2017-07-01T20:41:16.794Z,19.46
2017-07-01T20:42:22.153Z,19.59
2017-07-01T20:43:12.317Z,19.51
2017-07-01T20:44:20.111Z,19.34
2017-07-01T20:45:17.259Z,19.23
2017-07-01T20:46:12.906Z,19.16
2017-07-01T20:47:17.167Z,19.17
2017-07-01T20:48:12.877Z,19.19
2017-07-01T20:49:16.995Z,18.92
2017-07-01T20:50:22.262Z,18.86
2017-07-01T20:51:12.469Z,18.84
2017-07-01T20:52:21.779Z,18.94
2017-07-01T20:53:17.246Z,18.91
2017-07-01T20:54:12.915Z,18.85
2017-07-01T20:55:17.102Z,18.91
2017-07-01T20:56:17.248Z,18.99
2017-07-01T20:57:12.560Z,19.12
2017-07-01T20:58:21.851Z,18.94
2017-07-01T20:59:22.152Z,18.98
2017-07-01T21:00:17.272Z,19.18
2017-07-01T21:01:12.720Z,19.27
2017-07-01T21:02:16.827Z,19.10
2017-07-01T21:03:22.732Z,19.07
2017-07-01T21:04:17.246Z,19.13
2017-07-01T21:05:22.648Z,19.12
2017-07-01T21:06:22.042Z,18.99
2017-07-01T21:07:17.268Z,19.11
2017-07-01T21:08:20.492Z,19.02
2017-07-01T21:09:12.537Z,18.96
2017-07-01T21:10:12.671Z,19.10
2017-07-01T21:11:12.894Z,19.18
2017-07-01T21:12:12.214Z,19.00
2017-07-01T21:13:22.533Z,18.93
2017-07-01T21:14:16.120Z,18.98
2017-07-01T21:15:17.272Z,18.98
2017-07-01T21:16:17.389Z,19.11
2017-07-01T21:17:11.853Z,18.97
2017-07-01T21:18:21.984Z,18.88
2017-07-01T21:19:12.450Z,18.83
2017-07-01T21:20:18.880Z,18.75
2017-07-01T21:21:16.984Z,18.74
2017-07-01T21:22:22.225Z,18.92
2017-07-01T21:23:17.776Z,19.09
2017-07-01T21:24:16.850Z,19.16
2017-07-01T21:25:17.047Z,19.19
2017-07-01T21:26:17.251Z,19.30
2017-07-01T21:27:12.888Z,19.42
2017-07-01T21:28:12.226Z,19.50
2017-07-01T21:29:17.301Z,19.54
2017-07-01T21:30:17.369Z,19.41
2017-07-01T21:31:17.395Z,19.44
2017-07-01T21:32:17.745Z,19.53
2017-07-01T21:33:17.064Z,19.56
2017-07-01T21:34:17.301Z,19.57
2017-07-01T21:35:23.133Z,19.36
2017-07-01T21:36:22.414Z,19.43
2017-07-01T21:37:12.940Z,19.43
2017-07-01T21:38:22.246Z,19.39
2017-07-01T21:39:17.731Z,19.39
2017-07-01T21:40:22.002Z,19.42
2017-07-01T21:41:17.076Z,19.25
2017-07-01T21:42:17.692Z,19.17
2017-07-01T21:43:16.886Z,19.21
2017-07-01T21:44:17.807Z,18.87
2017-07-01T21:45:22.054Z,18.90
2017-07-01T21:46:17.561Z,18.99
2017-07-01T21:47:12.744Z,18.96
2017-07-01T21:48:18.524Z,19.21
2017-07-01T21:49:13.227Z,19.29
2017-07-01T21:50:22.416Z,19.06
2017-07-01T21:51:17.402Z,19.20
2017-07-01T21:52:22.536Z,19.11
2017-07-01T21:53:21.962Z,18.96
2017-07-01T21:54:17.087Z,19.07
2017-07-01T21:55:17.651Z,19.12
2017-07-01T21:56:17.328Z,19.04
2017-07-01T21:57:12.884Z,19.11
2017-07-01T21:58:12.143Z,19.14
2017-07-01T21:59:22.476Z,19.08
2017-07-01T22:00:21.754Z,18.96
2017-07-01T22:01:17.314Z,19.05
2017-07-01T22:02:22.734Z,19.02
2017-07-01T22:03:12.359Z,18.88
2017-07-01T22:04:12.828Z,18.96
2017-07-01T22:05:21.963Z,18.94
2017-07-01T22:06:22.073Z,18.89
2017-07-01T22:07:18.136Z,19.07
2017-07-01T22:08:17.134Z,18.94
2017-07-01T22:09:22.766Z,18.89
2017-07-01T22:10:16.859Z,18.93